sensor_id;sensor_type;location;lat;lon;timestamp;temperature;humidity
81842;DHT22;71284;50.918;7.092;2023-08-24T00:02:03;20.90;61.00
81842;DHT22;71284;50.918;7.092;2023-08-24T00:04:30;20.80;61.00
81842;DHT22;71284;50.918;7.092;2023-08-24T00:06:57;20.80;60.90
81842;DHT22;71284;50.918;7.092;2023-08-24T00:09:23;20.80;61.00
81842;DHT22;71284;50.918;7.092;2023-08-24T00:11:50;20.80;60.50
81842;DHT22;71284;50.918;7.092;2023-08-24T00:14:16;20.70;60.70
81842;DHT22;71284;50.918;7.092;2023-08-24T00:16:43;20.60;61.20
81842;DHT22;71284;50.918;7.092;2023-08-24T00:19:10;20.30;62.00
81842;DHT22;71284;50.918;7.092;2023-08-24T00:21:36;20.20;62.20
81842;DHT22;71284;50.918;7.092;2023-08-24T00:24:03;20.30;61.90
81842;DHT22;71284;50.918;7.092;2023-08-24T00:26:29;20.40;61.10
81842;DHT22;71284;50.918;7.092;2023-08-24T00:28:56;20.50;61.00
81842;DHT22;71284;50.918;7.092;2023-08-24T00:31:22;20.20;61.90
81842;DHT22;71284;50.918;7.092;2023-08-24T00:33:49;20.10;62.00
81842;DHT22;71284;50.918;7.092;2023-08-24T00:36:17;20.10;61.80
81842;DHT22;71284;50.918;7.092;2023-08-24T00:38:44;20.30;61.10
81842;DHT22;71284;50.918;7.092;2023-08-24T00:41:10;20.50;60.60
81842;DHT22;71284;50.918;7.092;2023-08-24T00:43:37;20.50;60.30
81842;DHT22;71284;50.918;7.092;2023-08-24T00:46:03;20.60;60.60
81842;DHT22;71284;50.918;7.092;2023-08-24T00:48:30;20.60;60.40
81842;DHT22;71284;50.918;7.092;2023-08-24T00:50:59;20.60;60.40
81842;DHT22;71284;50.918;7.092;2023-08-24T00:53:25;20.60;60.60
81842;DHT22;71284;50.918;7.092;2023-08-24T00:55:52;20.50;60.60
81842;DHT22;71284;50.918;7.092;2023-08-24T00:58:18;20.40;60.70
81842;DHT22;71284;50.918;7.092;2023-08-24T01:00:45;20.40;61.10
81842;DHT22;71284;50.918;7.092;2023-08-24T01:03:11;20.30;61.40
81842;DHT22;71284;50.918;7.092;2023-08-24T01:05:38;20.30;61.40
81842;DHT22;71284;50.918;7.092;2023-08-24T01:08:05;20.30;61.20
81842;DHT22;71284;50.918;7.092;2023-08-24T01:10:39;20.30;61.40
81842;DHT22;71284;50.918;7.092;2023-08-24T01:13:08;20.20;61.90
81842;DHT22;71284;50.918;7.092;2023-08-24T01:15:44;20.10;62.10
81842;DHT22;71284;50.918;7.092;2023-08-24T01:18:08;20.00;62.40
81842;DHT22;71284;50.918;7.092;2023-08-24T01:20:33;19.90;62.50
81842;DHT22;71284;50.918;7.092;2023-08-24T01:25:52;20.10;61.70
81842;DHT22;71284;50.918;7.092;2023-08-24T01:28:18;20.20;61.40
81842;DHT22;71284;50.918;7.092;2023-08-24T01:30:44;20.10;61.70
81842;DHT22;71284;50.918;7.092;2023-08-24T01:33:11;20.20;61.20
81842;DHT22;71284;50.918;7.092;2023-08-24T01:35:38;20.30;61.30
81842;DHT22;71284;50.918;7.092;2023-08-24T01:38:04;20.20;61.30
81842;DHT22;71284;50.918;7.092;2023-08-24T01:40:36;20.30;61.10
81842;DHT22;71284;50.918;7.092;2023-08-24T01:43:03;20.30;61.50
81842;DHT22;71284;50.918;7.092;2023-08-24T01:45:29;20.20;61.50
81842;DHT22;71284;50.918;7.092;2023-08-24T01:47:55;20.10;62.40
81842;DHT22;71284;50.918;7.092;2023-08-24T01:50:22;19.90;62.30
81842;DHT22;71284;50.918;7.092;2023-08-24T01:52:49;19.90;62.20
81842;DHT22;71284;50.918;7.092;2023-08-24T01:55:18;19.90;62.50
81842;DHT22;71284;50.918;7.092;2023-08-24T01:57:44;20.00;62.20
81842;DHT22;71284;50.918;7.092;2023-08-24T02:00:10;20.00;62.00
81842;DHT22;71284;50.918;7.092;2023-08-24T02:02:37;20.10;62.20
81842;DHT22;71284;50.918;7.092;2023-08-24T02:05:04;20.10;61.90
81842;DHT22;71284;50.918;7.092;2023-08-24T02:07:31;20.00;62.10
81842;DHT22;71284;50.918;7.092;2023-08-24T02:09:57;19.80;62.50
81842;DHT22;71284;50.918;7.092;2023-08-24T02:12:24;19.80;62.40
81842;DHT22;71284;50.918;7.092;2023-08-24T02:14:50;19.80;63.70
81842;DHT22;71284;50.918;7.092;2023-08-24T02:17:17;19.70;62.60
81842;DHT22;71284;50.918;7.092;2023-08-24T02:19:44;19.80;62.70
81842;DHT22;71284;50.918;7.092;2023-08-24T02:22:10;19.60;63.10
81842;DHT22;71284;50.918;7.092;2023-08-24T02:24:37;19.70;62.90
81842;DHT22;71284;50.918;7.092;2023-08-24T02:27:03;19.70;63.00
81842;DHT22;71284;50.918;7.092;2023-08-24T02:29:30;19.70;63.20
81842;DHT22;71284;50.918;7.092;2023-08-24T02:31:57;19.80;62.70
81842;DHT22;71284;50.918;7.092;2023-08-24T02:34:23;19.80;62.60
81842;DHT22;71284;50.918;7.092;2023-08-24T02:36:50;19.90;62.50
81842;DHT22;71284;50.918;7.092;2023-08-24T02:39:16;20.00;61.80
81842;DHT22;71284;50.918;7.092;2023-08-24T02:41:43;20.00;61.40
81842;DHT22;71284;50.918;7.092;2023-08-24T02:44:10;20.10;61.50
81842;DHT22;71284;50.918;7.092;2023-08-24T02:46:36;20.10;61.60
81842;DHT22;71284;50.918;7.092;2023-08-24T02:49:03;20.10;62.00
81842;DHT22;71284;50.918;7.092;2023-08-24T02:51:29;20.10;62.70
81842;DHT22;71284;50.918;7.092;2023-08-24T02:53:56;20.10;62.20
81842;DHT22;71284;50.918;7.092;2023-08-24T02:56:22;20.00;62.20
81842;DHT22;71284;50.918;7.092;2023-08-24T02:58:49;20.00;62.00
81842;DHT22;71284;50.918;7.092;2023-08-24T03:01:16;20.00;61.60
81842;DHT22;71284;50.918;7.092;2023-08-24T03:03:42;20.00;61.90
81842;DHT22;71284;50.918;7.092;2023-08-24T03:06:09;20.00;61.10
81842;DHT22;71284;50.918;7.092;2023-08-24T03:08:35;20.00;61.30
81842;DHT22;71284;50.918;7.092;2023-08-24T03:11:02;20.10;61.10
81842;DHT22;71284;50.918;7.092;2023-08-24T03:13:29;20.20;60.60
81842;DHT22;71284;50.918;7.092;2023-08-24T03:15:55;20.30;60.30
81842;DHT22;71284;50.918;7.092;2023-08-24T03:18:22;20.40;60.10
81842;DHT22;71284;50.918;7.092;2023-08-24T03:20:49;20.40;60.20
81842;DHT22;71284;50.918;7.092;2023-08-24T03:23:15;20.30;60.20
81842;DHT22;71284;50.918;7.092;2023-08-24T03:25:42;20.30;60.50
81842;DHT22;71284;50.918;7.092;2023-08-24T03:28:08;20.40;60.10
81842;DHT22;71284;50.918;7.092;2023-08-24T03:30:35;20.40;60.10
81842;DHT22;71284;50.918;7.092;2023-08-24T03:33:01;20.40;59.80
81842;DHT22;71284;50.918;7.092;2023-08-24T03:35:28;20.50;59.60
81842;DHT22;71284;50.918;7.092;2023-08-24T03:37:54;20.50;59.40
81842;DHT22;71284;50.918;7.092;2023-08-24T03:40:21;20.60;59.40
81842;DHT22;71284;50.918;7.092;2023-08-24T03:42:48;20.60;59.50
81842;DHT22;71284;50.918;7.092;2023-08-24T03:45:14;20.70;59.20
81842;DHT22;71284;50.918;7.092;2023-08-24T03:47:41;20.60;59.10
81842;DHT22;71284;50.918;7.092;2023-08-24T03:50:08;20.60;59.80
81842;DHT22;71284;50.918;7.092;2023-08-24T03:52:34;20.60;60.00
81842;DHT22;71284;50.918;7.092;2023-08-24T03:55:01;20.60;59.50
81842;DHT22;71284;50.918;7.092;2023-08-24T03:57:27;20.70;59.80
81842;DHT22;71284;50.918;7.092;2023-08-24T03:59:54;20.80;59.90
81842;DHT22;71284;50.918;7.092;2023-08-24T04:02:21;20.80;59.50
81842;DHT22;71284;50.918;7.092;2023-08-24T04:04:47;20.90;59.70
81842;DHT22;71284;50.918;7.092;2023-08-24T04:07:14;20.90;59.30
81842;DHT22;71284;50.918;7.092;2023-08-24T04:09:40;21.00;59.20
81842;DHT22;71284;50.918;7.092;2023-08-24T04:12:07;21.00;59.50
81842;DHT22;71284;50.918;7.092;2023-08-24T04:14:34;21.10;59.50
81842;DHT22;71284;50.918;7.092;2023-08-24T04:17:00;21.10;60.00
81842;DHT22;71284;50.918;7.092;2023-08-24T04:19:27;21.00;59.80
81842;DHT22;71284;50.918;7.092;2023-08-24T04:21:54;20.90;60.80
81842;DHT22;71284;50.918;7.092;2023-08-24T04:24:20;20.80;61.20
81842;DHT22;71284;50.918;7.092;2023-08-24T04:26:47;20.70;61.30
81842;DHT22;71284;50.918;7.092;2023-08-24T04:29:13;20.80;61.30
81842;DHT22;71284;50.918;7.092;2023-08-24T04:31:40;20.80;61.00
81842;DHT22;71284;50.918;7.092;2023-08-24T04:34:07;20.90;60.80
81842;DHT22;71284;50.918;7.092;2023-08-24T04:36:33;20.90;61.10
81842;DHT22;71284;50.918;7.092;2023-08-24T04:39:00;20.90;60.70
81842;DHT22;71284;50.918;7.092;2023-08-24T04:41:27;20.90;61.10
81842;DHT22;71284;50.918;7.092;2023-08-24T04:43:54;20.80;61.60
81842;DHT22;71284;50.918;7.092;2023-08-24T04:46:19;20.60;62.10
81842;DHT22;71284;50.918;7.092;2023-08-24T04:48:46;20.60;62.50
81842;DHT22;71284;50.918;7.092;2023-08-24T04:51:13;20.50;63.00
81842;DHT22;71284;50.918;7.092;2023-08-24T04:53:39;20.60;63.10
81842;DHT22;71284;50.918;7.092;2023-08-24T04:56:06;20.50;63.30
81842;DHT22;71284;50.918;7.092;2023-08-24T04:58:33;20.50;63.50
81842;DHT22;71284;50.918;7.092;2023-08-24T05:00:59;20.50;63.20
81842;DHT22;71284;50.918;7.092;2023-08-24T05:03:26;20.60;63.00
81842;DHT22;71284;50.918;7.092;2023-08-24T05:05:52;20.60;63.10
81842;DHT22;71284;50.918;7.092;2023-08-24T05:08:19;20.60;63.60
81842;DHT22;71284;50.918;7.092;2023-08-24T05:10:45;20.50;65.20
81842;DHT22;71284;50.918;7.092;2023-08-24T05:13:12;20.50;64.50
81842;DHT22;71284;50.918;7.092;2023-08-24T05:15:39;20.40;65.00
81842;DHT22;71284;50.918;7.092;2023-08-24T05:18:05;20.40;65.40
81842;DHT22;71284;50.918;7.092;2023-08-24T05:20:32;20.30;65.40
81842;DHT22;71284;50.918;7.092;2023-08-24T05:22:58;20.30;65.40
81842;DHT22;71284;50.918;7.092;2023-08-24T05:25:25;20.20;65.70
81842;DHT22;71284;50.918;7.092;2023-08-24T05:27:52;20.00;66.90
81842;DHT22;71284;50.918;7.092;2023-08-24T05:30:18;19.90;67.70
81842;DHT22;71284;50.918;7.092;2023-08-24T05:32:45;19.70;69.30
81842;DHT22;71284;50.918;7.092;2023-08-24T05:35:11;19.60;68.90
81842;DHT22;71284;50.918;7.092;2023-08-24T05:37:38;19.80;68.30
81842;DHT22;71284;50.918;7.092;2023-08-24T05:40:05;19.90;67.80
81842;DHT22;71284;50.918;7.092;2023-08-24T05:42:32;19.90;68.30
81842;DHT22;71284;50.918;7.092;2023-08-24T05:44:58;19.90;68.40
81842;DHT22;71284;50.918;7.092;2023-08-24T05:47:25;20.10;68.10
81842;DHT22;71284;50.918;7.092;2023-08-24T05:49:51;20.10;67.90
81842;DHT22;71284;50.918;7.092;2023-08-24T05:52:18;20.00;68.40
81842;DHT22;71284;50.918;7.092;2023-08-24T05:54:45;20.00;68.40
81842;DHT22;71284;50.918;7.092;2023-08-24T05:57:11;20.10;68.40
81842;DHT22;71284;50.918;7.092;2023-08-24T05:59:38;20.30;67.70
81842;DHT22;71284;50.918;7.092;2023-08-24T06:02:05;20.50;67.40
81842;DHT22;71284;50.918;7.092;2023-08-24T06:04:31;20.70;66.50
81842;DHT22;71284;50.918;7.092;2023-08-24T06:06:57;20.90;66.30
81842;DHT22;71284;50.918;7.092;2023-08-24T06:09:24;20.90;65.80
81842;DHT22;71284;50.918;7.092;2023-08-24T06:11:51;21.00;65.50
81842;DHT22;71284;50.918;7.092;2023-08-24T06:14:17;21.10;65.50
81842;DHT22;71284;50.918;7.092;2023-08-24T06:16:44;21.20;65.00
81842;DHT22;71284;50.918;7.092;2023-08-24T06:19:10;21.30;64.80
81842;DHT22;71284;50.918;7.092;2023-08-24T06:21:37;21.30;64.90
81842;DHT22;71284;50.918;7.092;2023-08-24T06:24:04;21.30;65.00
81842;DHT22;71284;50.918;7.092;2023-08-24T06:26:30;21.30;64.70
81842;DHT22;71284;50.918;7.092;2023-08-24T06:28:57;21.40;64.30
81842;DHT22;71284;50.918;7.092;2023-08-24T06:31:23;21.40;64.70
81842;DHT22;71284;50.918;7.092;2023-08-24T06:33:50;21.40;64.70
81842;DHT22;71284;50.918;7.092;2023-08-24T06:36:17;21.50;64.50
81842;DHT22;71284;50.918;7.092;2023-08-24T06:38:43;21.60;64.60
81842;DHT22;71284;50.918;7.092;2023-08-24T06:41:10;21.60;64.40
81842;DHT22;71284;50.918;7.092;2023-08-24T06:43:36;21.70;64.30
81842;DHT22;71284;50.918;7.092;2023-08-24T06:46:03;21.80;64.30
81842;DHT22;71284;50.918;7.092;2023-08-24T06:48:30;21.90;64.50
81842;DHT22;71284;50.918;7.092;2023-08-24T06:50:56;22.00;63.90
81842;DHT22;71284;50.918;7.092;2023-08-24T06:53:23;22.10;63.70
81842;DHT22;71284;50.918;7.092;2023-08-24T06:55:53;22.30;63.80
81842;DHT22;71284;50.918;7.092;2023-08-24T06:58:16;22.30;64.10
81842;DHT22;71284;50.918;7.092;2023-08-24T07:00:42;22.40;63.40
81842;DHT22;71284;50.918;7.092;2023-08-24T07:03:09;22.40;62.10
81842;DHT22;71284;50.918;7.092;2023-08-24T07:05:36;22.50;61.40
81842;DHT22;71284;50.918;7.092;2023-08-24T07:08:02;22.70;61.10
81842;DHT22;71284;50.918;7.092;2023-08-24T07:10:29;22.70;61.20
81842;DHT22;71284;50.918;7.092;2023-08-24T07:12:56;22.70;61.30
81842;DHT22;71284;50.918;7.092;2023-08-24T07:15:22;22.80;61.00
81842;DHT22;71284;50.918;7.092;2023-08-24T07:17:49;23.00;61.00
81842;DHT22;71284;50.918;7.092;2023-08-24T07:20:15;22.90;60.90
81842;DHT22;71284;50.918;7.092;2023-08-24T07:22:42;23.10;59.60
81842;DHT22;71284;50.918;7.092;2023-08-24T07:25:09;23.10;59.70
81842;DHT22;71284;50.918;7.092;2023-08-24T07:27:35;23.20;59.30
81842;DHT22;71284;50.918;7.092;2023-08-24T07:30:02;23.40;59.00
81842;DHT22;71284;50.918;7.092;2023-08-24T07:32:29;23.40;59.20
81842;DHT22;71284;50.918;7.092;2023-08-24T07:34:56;23.50;58.60
81842;DHT22;71284;50.918;7.092;2023-08-24T07:37:22;23.60;60.20
81842;DHT22;71284;50.918;7.092;2023-08-24T07:39:49;23.60;58.60
81842;DHT22;71284;50.918;7.092;2023-08-24T07:42:15;23.70;59.60
81842;DHT22;71284;50.918;7.092;2023-08-24T07:44:42;23.80;60.10
81842;DHT22;71284;50.918;7.092;2023-08-24T07:47:09;23.90;58.20
81842;DHT22;71284;50.918;7.092;2023-08-24T07:49:35;24.00;58.70
81842;DHT22;71284;50.918;7.092;2023-08-24T07:52:02;24.10;58.60
81842;DHT22;71284;50.918;7.092;2023-08-24T07:54:28;24.10;57.50
81842;DHT22;71284;50.918;7.092;2023-08-24T07:56:55;24.30;56.80
81842;DHT22;71284;50.918;7.092;2023-08-24T07:59:22;24.40;56.70
81842;DHT22;71284;50.918;7.092;2023-08-24T08:01:48;24.40;56.00
81842;DHT22;71284;50.918;7.092;2023-08-24T08:04:15;24.50;56.30
81842;DHT22;71284;50.918;7.092;2023-08-24T08:06:41;24.70;56.50
81842;DHT22;71284;50.918;7.092;2023-08-24T08:09:08;24.80;55.50
81842;DHT22;71284;50.918;7.092;2023-08-24T08:11:36;24.70;55.70
81842;DHT22;71284;50.918;7.092;2023-08-24T08:14:01;24.90;56.20
81842;DHT22;71284;50.918;7.092;2023-08-24T08:16:28;25.00;55.20
81842;DHT22;71284;50.918;7.092;2023-08-24T08:18:54;25.10;54.70
81842;DHT22;71284;50.918;7.092;2023-08-24T08:21:21;25.40;53.70
81842;DHT22;71284;50.918;7.092;2023-08-24T08:23:47;25.50;53.80
81842;DHT22;71284;50.918;7.092;2023-08-24T08:26:14;25.70;52.00
81842;DHT22;71284;50.918;7.092;2023-08-24T08:28:41;25.70;52.40
81842;DHT22;71284;50.918;7.092;2023-08-24T08:31:07;25.90;52.30
81842;DHT22;71284;50.918;7.092;2023-08-24T08:33:34;26.00;52.00
81842;DHT22;71284;50.918;7.092;2023-08-24T08:36:00;25.80;51.20
81842;DHT22;71284;50.918;7.092;2023-08-24T08:38:27;25.70;51.10
81842;DHT22;71284;50.918;7.092;2023-08-24T08:40:54;25.90;51.30
81842;DHT22;71284;50.918;7.092;2023-08-24T08:43:21;26.00;52.10
81842;DHT22;71284;50.918;7.092;2023-08-24T08:45:49;26.00;51.10
81842;DHT22;71284;50.918;7.092;2023-08-24T08:48:14;26.10;50.50
81842;DHT22;71284;50.918;7.092;2023-08-24T08:50:41;26.40;50.80
81842;DHT22;71284;50.918;7.092;2023-08-24T08:53:07;26.50;50.30
81842;DHT22;71284;50.918;7.092;2023-08-24T08:55:34;26.60;49.50
81842;DHT22;71284;50.918;7.092;2023-08-24T08:58:00;26.70;49.30
81842;DHT22;71284;50.918;7.092;2023-08-24T09:00:27;26.70;48.90
81842;DHT22;71284;50.918;7.092;2023-08-24T09:02:54;26.60;49.30
81842;DHT22;71284;50.918;7.092;2023-08-24T09:05:20;26.60;49.00
81842;DHT22;71284;50.918;7.092;2023-08-24T09:07:47;26.90;50.60
81842;DHT22;71284;50.918;7.092;2023-08-24T09:10:13;27.00;49.30
81842;DHT22;71284;50.918;7.092;2023-08-24T09:12:40;27.00;48.70
81842;DHT22;71284;50.918;7.092;2023-08-24T09:15:07;27.20;48.50
81842;DHT22;71284;50.918;7.092;2023-08-24T09:17:34;27.20;48.10
81842;DHT22;71284;50.918;7.092;2023-08-24T09:20:06;27.20;48.90
81842;DHT22;71284;50.918;7.092;2023-08-24T09:22:27;27.20;48.20
81842;DHT22;71284;50.918;7.092;2023-08-24T09:24:53;27.30;48.20
81842;DHT22;71284;50.918;7.092;2023-08-24T09:27:20;27.40;47.10
81842;DHT22;71284;50.918;7.092;2023-08-24T09:29:52;27.40;46.90
81842;DHT22;71284;50.918;7.092;2023-08-24T09:32:23;27.50;47.70
81842;DHT22;71284;50.918;7.092;2023-08-24T09:34:49;27.80;46.50
81842;DHT22;71284;50.918;7.092;2023-08-24T09:37:15;28.00;47.40
81842;DHT22;71284;50.918;7.092;2023-08-24T09:39:42;28.00;46.90
81842;DHT22;71284;50.918;7.092;2023-08-24T09:42:09;28.10;46.00
81842;DHT22;71284;50.918;7.092;2023-08-24T09:44:35;28.10;46.40
81842;DHT22;71284;50.918;7.092;2023-08-24T09:47:02;28.00;47.10
81842;DHT22;71284;50.918;7.092;2023-08-24T09:49:28;28.00;46.50
81842;DHT22;71284;50.918;7.092;2023-08-24T09:51:55;27.90;46.50
81842;DHT22;71284;50.918;7.092;2023-08-24T09:54:22;28.00;46.50
81842;DHT22;71284;50.918;7.092;2023-08-24T09:56:48;28.10;46.60
81842;DHT22;71284;50.918;7.092;2023-08-24T09:59:15;28.20;46.50
81842;DHT22;71284;50.918;7.092;2023-08-24T10:01:45;28.40;46.50
81842;DHT22;71284;50.918;7.092;2023-08-24T10:04:10;28.70;45.60
81842;DHT22;71284;50.918;7.092;2023-08-24T10:06:38;28.90;44.50
81842;DHT22;71284;50.918;7.092;2023-08-24T10:09:04;28.80;45.30
81842;DHT22;71284;50.918;7.092;2023-08-24T10:11:30;28.90;45.20
81842;DHT22;71284;50.918;7.092;2023-08-24T10:14:04;28.80;45.30
81842;DHT22;71284;50.918;7.092;2023-08-24T10:16:30;28.90;45.90
81842;DHT22;71284;50.918;7.092;2023-08-24T10:18:56;29.10;45.40
81842;DHT22;71284;50.918;7.092;2023-08-24T10:21:23;29.20;45.70
81842;DHT22;71284;50.918;7.092;2023-08-24T10:23:51;29.20;45.70
81842;DHT22;71284;50.918;7.092;2023-08-24T10:26:18;29.30;45.50
81842;DHT22;71284;50.918;7.092;2023-08-24T10:28:45;29.50;45.20
81842;DHT22;71284;50.918;7.092;2023-08-24T10:31:11;29.40;44.50
81842;DHT22;71284;50.918;7.092;2023-08-24T10:33:37;29.40;45.10
81842;DHT22;71284;50.918;7.092;2023-08-24T10:36:05;29.50;44.60
81842;DHT22;71284;50.918;7.092;2023-08-24T10:38:34;29.50;45.30
81842;DHT22;71284;50.918;7.092;2023-08-24T10:41:02;29.50;46.20
81842;DHT22;71284;50.918;7.092;2023-08-24T10:43:27;29.70;45.30
81842;DHT22;71284;50.918;7.092;2023-08-24T10:45:56;29.70;45.50
81842;DHT22;71284;50.918;7.092;2023-08-24T10:48:24;29.80;44.30
81842;DHT22;71284;50.918;7.092;2023-08-24T10:53:37;30.00;43.10
81842;DHT22;71284;50.918;7.092;2023-08-24T10:56:10;30.10;43.70
81842;DHT22;71284;50.918;7.092;2023-08-24T10:58:36;30.20;43.10
81842;DHT22;71284;50.918;7.092;2023-08-24T11:01:02;30.10;42.90
81842;DHT22;71284;50.918;7.092;2023-08-24T11:03:32;30.30;42.60
81842;DHT22;71284;50.918;7.092;2023-08-24T11:05:58;30.30;42.10
81842;DHT22;71284;50.918;7.092;2023-08-24T11:11:03;30.50;42.30
81842;DHT22;71284;50.918;7.092;2023-08-24T11:13:30;30.50;40.60
81842;DHT22;71284;50.918;7.092;2023-08-24T11:15:56;30.70;41.30
81842;DHT22;71284;50.918;7.092;2023-08-24T11:18:24;30.60;39.20
81842;DHT22;71284;50.918;7.092;2023-08-24T11:20:51;30.20;40.30
81842;DHT22;71284;50.918;7.092;2023-08-24T11:23:16;30.00;40.50
81842;DHT22;71284;50.918;7.092;2023-08-24T11:25:43;30.00;39.90
81842;DHT22;71284;50.918;7.092;2023-08-24T11:28:09;30.20;39.60
81842;DHT22;71284;50.918;7.092;2023-08-24T11:30:36;30.20;38.80
81842;DHT22;71284;50.918;7.092;2023-08-24T11:33:03;30.00;39.40
81842;DHT22;71284;50.918;7.092;2023-08-24T11:35:29;30.10;40.60
81842;DHT22;71284;50.918;7.092;2023-08-24T11:37:56;30.10;40.70
81842;DHT22;71284;50.918;7.092;2023-08-24T11:40:22;30.20;40.40
81842;DHT22;71284;50.918;7.092;2023-08-24T11:42:52;30.20;41.40
81842;DHT22;71284;50.918;7.092;2023-08-24T11:45:17;30.10;40.50
81842;DHT22;71284;50.918;7.092;2023-08-24T11:47:44;30.10;41.10
81842;DHT22;71284;50.918;7.092;2023-08-24T11:50:10;30.10;41.30
81842;DHT22;71284;50.918;7.092;2023-08-24T11:52:39;30.20;42.30
81842;DHT22;71284;50.918;7.092;2023-08-24T11:55:05;30.10;41.30
81842;DHT22;71284;50.918;7.092;2023-08-24T11:57:33;30.00;42.00
81842;DHT22;71284;50.918;7.092;2023-08-24T12:00:00;29.80;41.60
81842;DHT22;71284;50.918;7.092;2023-08-24T12:02:27;29.60;41.40
81842;DHT22;71284;50.918;7.092;2023-08-24T12:04:53;29.50;42.10
81842;DHT22;71284;50.918;7.092;2023-08-24T12:07:20;29.50;42.40
81842;DHT22;71284;50.918;7.092;2023-08-24T12:09:46;29.50;42.00
81842;DHT22;71284;50.918;7.092;2023-08-24T12:12:13;29.50;42.20
81842;DHT22;71284;50.918;7.092;2023-08-24T12:14:41;29.50;42.50
81842;DHT22;71284;50.918;7.092;2023-08-24T12:17:08;29.60;42.50
81842;DHT22;71284;50.918;7.092;2023-08-24T12:19:34;29.60;42.60
81842;DHT22;71284;50.918;7.092;2023-08-24T12:22:01;29.60;42.90
81842;DHT22;71284;50.918;7.092;2023-08-24T12:24:27;29.50;43.30
81842;DHT22;71284;50.918;7.092;2023-08-24T12:26:55;29.50;43.10
81842;DHT22;71284;50.918;7.092;2023-08-24T12:29:21;29.50;43.50
81842;DHT22;71284;50.918;7.092;2023-08-24T12:31:48;29.50;43.40
81842;DHT22;71284;50.918;7.092;2023-08-24T12:34:15;29.50;44.10
81842;DHT22;71284;50.918;7.092;2023-08-24T12:36:41;29.60;44.10
81842;DHT22;71284;50.918;7.092;2023-08-24T12:39:08;29.50;44.60
81842;DHT22;71284;50.918;7.092;2023-08-24T12:41:34;29.40;45.00
81842;DHT22;71284;50.918;7.092;2023-08-24T12:44:01;29.30;44.80
81842;DHT22;71284;50.918;7.092;2023-08-24T12:46:27;29.30;45.30
81842;DHT22;71284;50.918;7.092;2023-08-24T12:48:54;29.20;46.40
81842;DHT22;71284;50.918;7.092;2023-08-24T12:51:21;29.00;47.00
81842;DHT22;71284;50.918;7.092;2023-08-24T12:53:47;28.90;46.50
81842;DHT22;71284;50.918;7.092;2023-08-24T12:56:14;28.70;47.60
81842;DHT22;71284;50.918;7.092;2023-08-24T12:58:40;28.50;48.70
81842;DHT22;71284;50.918;7.092;2023-08-24T13:01:07;28.50;50.20
81842;DHT22;71284;50.918;7.092;2023-08-24T13:03:34;28.40;50.70
81842;DHT22;71284;50.918;7.092;2023-08-24T13:06:00;28.20;51.30
81842;DHT22;71284;50.918;7.092;2023-08-24T13:08:27;28.00;53.20
81842;DHT22;71284;50.918;7.092;2023-08-24T13:10:53;27.90;53.90
81842;DHT22;71284;50.918;7.092;2023-08-24T13:13:20;27.90;54.30
81842;DHT22;71284;50.918;7.092;2023-08-24T13:15:49;27.90;54.40
81842;DHT22;71284;50.918;7.092;2023-08-24T13:18:14;27.90;54.30
81842;DHT22;71284;50.918;7.092;2023-08-24T13:20:41;27.80;54.70
81842;DHT22;71284;50.918;7.092;2023-08-24T13:23:07;27.70;54.90
81842;DHT22;71284;50.918;7.092;2023-08-24T13:25:34;27.70;55.10
81842;DHT22;71284;50.918;7.092;2023-08-24T13:28:01;27.80;55.20
81842;DHT22;71284;50.918;7.092;2023-08-24T13:30:28;27.70;54.70
81842;DHT22;71284;50.918;7.092;2023-08-24T13:32:54;27.80;54.20
81842;DHT22;71284;50.918;7.092;2023-08-24T13:35:21;28.00;54.20
81842;DHT22;71284;50.918;7.092;2023-08-24T13:37:47;28.00;53.70
81842;DHT22;71284;50.918;7.092;2023-08-24T13:40:14;28.00;54.10
81842;DHT22;71284;50.918;7.092;2023-08-24T13:42:41;28.00;53.70
81842;DHT22;71284;50.918;7.092;2023-08-24T13:45:07;28.00;53.80
81842;DHT22;71284;50.918;7.092;2023-08-24T13:47:34;27.90;53.20
81842;DHT22;71284;50.918;7.092;2023-08-24T13:50:00;27.90;52.70
81842;DHT22;71284;50.918;7.092;2023-08-24T13:52:27;27.80;51.70
81842;DHT22;71284;50.918;7.092;2023-08-24T13:54:54;27.80;53.20
81842;DHT22;71284;50.918;7.092;2023-08-24T13:57:20;27.80;52.80
81842;DHT22;71284;50.918;7.092;2023-08-24T13:59:47;27.90;52.20
81842;DHT22;71284;50.918;7.092;2023-08-24T14:02:13;27.90;53.00
81842;DHT22;71284;50.918;7.092;2023-08-24T14:04:40;27.80;52.20
81842;DHT22;71284;50.918;7.092;2023-08-24T14:07:07;27.80;52.20
81842;DHT22;71284;50.918;7.092;2023-08-24T14:09:33;27.90;52.00
81842;DHT22;71284;50.918;7.092;2023-08-24T14:12:00;28.00;53.00
81842;DHT22;71284;50.918;7.092;2023-08-24T14:14:26;28.10;53.10
81842;DHT22;71284;50.918;7.092;2023-08-24T14:16:54;28.00;51.70
81842;DHT22;71284;50.918;7.092;2023-08-24T14:19:20;28.00;52.00
81842;DHT22;71284;50.918;7.092;2023-08-24T14:21:47;28.00;52.60
81842;DHT22;71284;50.918;7.092;2023-08-24T14:24:13;27.90;52.50
81842;DHT22;71284;50.918;7.092;2023-08-24T14:26:40;27.70;53.30
81842;DHT22;71284;50.918;7.092;2023-08-24T14:29:07;27.60;53.40
81842;DHT22;71284;50.918;7.092;2023-08-24T14:31:33;27.60;53.60
81842;DHT22;71284;50.918;7.092;2023-08-24T14:34:00;27.60;53.70
81842;DHT22;71284;50.918;7.092;2023-08-24T14:36:28;27.50;53.90
81842;DHT22;71284;50.918;7.092;2023-08-24T14:38:53;27.40;53.60
81842;DHT22;71284;50.918;7.092;2023-08-24T14:41:20;27.20;54.60
81842;DHT22;71284;50.918;7.092;2023-08-24T14:43:46;27.20;54.40
81842;DHT22;71284;50.918;7.092;2023-08-24T14:46:13;27.20;53.20
81842;DHT22;71284;50.918;7.092;2023-08-24T14:48:39;27.10;53.80
81842;DHT22;71284;50.918;7.092;2023-08-24T14:51:06;27.10;54.60
81842;DHT22;71284;50.918;7.092;2023-08-24T14:53:33;26.90;54.30
81842;DHT22;71284;50.918;7.092;2023-08-24T14:55:59;26.90;54.90
81842;DHT22;71284;50.918;7.092;2023-08-24T14:58:26;26.90;56.40
81842;DHT22;71284;50.918;7.092;2023-08-24T15:00:53;26.80;54.70
81842;DHT22;71284;50.918;7.092;2023-08-24T15:03:19;26.80;55.20
81842;DHT22;71284;50.918;7.092;2023-08-24T15:05:55;26.70;57.00
81842;DHT22;71284;50.918;7.092;2023-08-24T15:08:13;26.30;56.20
81842;DHT22;71284;50.918;7.092;2023-08-24T15:10:40;26.40;56.10
81842;DHT22;71284;50.918;7.092;2023-08-24T15:13:06;26.40;56.90
81842;DHT22;71284;50.918;7.092;2023-08-24T15:15:35;26.40;57.10
81842;DHT22;71284;50.918;7.092;2023-08-24T15:18:01;26.30;57.80
81842;DHT22;71284;50.918;7.092;2023-08-24T15:20:28;26.20;57.40
81842;DHT22;71284;50.918;7.092;2023-08-24T15:22:54;26.20;58.20
81842;DHT22;71284;50.918;7.092;2023-08-24T15:25:21;26.10;58.70
81842;DHT22;71284;50.918;7.092;2023-08-24T15:27:47;26.10;59.10
81842;DHT22;71284;50.918;7.092;2023-08-24T15:30:14;26.00;58.90
81842;DHT22;71284;50.918;7.092;2023-08-24T15:32:41;25.80;58.50
81842;DHT22;71284;50.918;7.092;2023-08-24T15:35:07;25.70;58.80